sensor_id;sensor_type;location;lat;lon;timestamp;P1;durP1;ratioP1;P2;durP2;ratioP2
8466;SDS011;4270;48.148;11.648;2023-02-05T00:00:16;5.70;;;4.43;;
8466;SDS011;4270;48.148;11.648;2023-02-05T00:02:41;7.37;;;4.97;;
8466;SDS011;4270;48.148;11.648;2023-02-05T00:05:06;5.60;;;4.50;;
8466;SDS011;4270;48.148;11.648;2023-02-05T00:07:31;7.87;;;4.80;;
8466;SDS011;4270;48.148;11.648;2023-02-05T00:09:56;8.60;;;4.63;;
8466;SDS011;4270;48.148;11.648;2023-02-05T00:12:22;7.20;;;4.60;;
8466;SDS011;4270;48.148;11.648;2023-02-05T00:14:47;6.73;;;3.67;;
8466;SDS011;4270;48.148;11.648;2023-02-05T00:17:12;7.10;;;4.67;;
8466;SDS011;4270;48.148;11.648;2023-02-05T00:19:37;7.67;;;4.63;;
8466;SDS011;4270;48.148;11.648;2023-02-05T00:22:02;8.63;;;4.87;;
8466;SDS011;4270;48.148;11.648;2023-02-05T00:24:27;6.83;;;4.47;;
8466;SDS011;4270;48.148;11.648;2023-02-05T00:26:53;7.30;;;4.77;;
8466;SDS011;4270;48.148;11.648;2023-02-05T00:29:18;5.60;;;4.70;;
8466;SDS011;4270;48.148;11.648;2023-02-05T00:31:43;4.80;;;4.33;;
8466;SDS011;4270;48.148;11.648;2023-02-05T00:34:08;5.73;;;4.00;;
8466;SDS011;4270;48.148;11.648;2023-02-05T00:36:33;6.73;;;5.00;;
8466;SDS011;4270;48.148;11.648;2023-02-05T00:38:58;6.27;;;4.20;;
8466;SDS011;4270;48.148;11.648;2023-02-05T00:41:24;6.93;;;4.77;;
8466;SDS011;4270;48.148;11.648;2023-02-05T00:43:49;6.60;;;4.93;;
8466;SDS011;4270;48.148;11.648;2023-02-05T00:46:14;7.43;;;5.10;;
8466;SDS011;4270;48.148;11.648;2023-02-05T00:48:39;7.73;;;4.80;;
8466;SDS011;4270;48.148;11.648;2023-02-05T00:51:05;6.10;;;4.83;;
8466;SDS011;4270;48.148;11.648;2023-02-05T00:53:30;5.63;;;4.23;;
8466;SDS011;4270;48.148;11.648;2023-02-05T00:55:56;7.93;;;4.80;;
8466;SDS011;4270;48.148;11.648;2023-02-05T00:58:21;11.10;;;5.17;;
8466;SDS011;4270;48.148;11.648;2023-02-05T01:00:47;9.60;;;4.80;;
8466;SDS011;4270;48.148;11.648;2023-02-05T01:03:13;8.47;;;5.30;;
8466;SDS011;4270;48.148;11.648;2023-02-05T01:05:38;6.97;;;5.10;;
8466;SDS011;4270;48.148;11.648;2023-02-05T01:08:04;8.77;;;4.90;;
8466;SDS011;4270;48.148;11.648;2023-02-05T01:10:29;5.53;;;4.67;;
8466;SDS011;4270;48.148;11.648;2023-02-05T01:12:54;8.60;;;5.23;;
8466;SDS011;4270;48.148;11.648;2023-02-05T01:15:19;7.07;;;5.13;;
8466;SDS011;4270;48.148;11.648;2023-02-05T01:17:45;8.00;;;4.87;;
8466;SDS011;4270;48.148;11.648;2023-02-05T01:20:10;10.13;;;5.60;;
8466;SDS011;4270;48.148;11.648;2023-02-05T01:22:36;7.73;;;5.30;;
8466;SDS011;4270;48.148;11.648;2023-02-05T01:25:01;8.70;;;5.50;;
8466;SDS011;4270;48.148;11.648;2023-02-05T01:27:26;7.10;;;5.40;;
8466;SDS011;4270;48.148;11.648;2023-02-05T01:29:51;9.80;;;5.27;;
8466;SDS011;4270;48.148;11.648;2023-02-05T01:32:17;6.93;;;4.93;;
8466;SDS011;4270;48.148;11.648;2023-02-05T01:34:42;6.40;;;4.87;;
8466;SDS011;4270;48.148;11.648;2023-02-05T01:37:08;10.03;;;5.73;;
8466;SDS011;4270;48.148;11.648;2023-02-05T01:39:33;9.43;;;5.17;;
8466;SDS011;4270;48.148;11.648;2023-02-05T01:42:00;8.23;;;5.10;;
8466;SDS011;4270;48.148;11.648;2023-02-05T01:44:25;8.87;;;5.57;;
8466;SDS011;4270;48.148;11.648;2023-02-05T01:46:51;9.47;;;5.40;;
8466;SDS011;4270;48.148;11.648;2023-02-05T01:51:41;7.50;;;5.32;;
8466;SDS011;4270;48.148;11.648;2023-02-05T01:54:07;6.60;;;4.80;;
8466;SDS011;4270;48.148;11.648;2023-02-05T01:56:34;11.07;;;5.40;;
8466;SDS011;4270;48.148;11.648;2023-02-05T01:59:05;8.43;;;5.57;;
8466;SDS011;4270;48.148;11.648;2023-02-05T02:01:31;7.50;;;5.60;;
8466;SDS011;4270;48.148;11.648;2023-02-05T02:03:56;9.20;;;5.70;;
8466;SDS011;4270;48.148;11.648;2023-02-05T02:06:23;6.40;;;4.70;;
8466;SDS011;4270;48.148;11.648;2023-02-05T02:08:49;7.13;;;5.27;;
8466;SDS011;4270;48.148;11.648;2023-02-05T02:11:14;10.97;;;6.50;;
8466;SDS011;4270;48.148;11.648;2023-02-05T02:13:41;7.30;;;4.87;;
8466;SDS011;4270;48.148;11.648;2023-02-05T02:16:08;8.57;;;5.60;;
8466;SDS011;4270;48.148;11.648;2023-02-05T02:18:33;9.37;;;5.13;;
8466;SDS011;4270;48.148;11.648;2023-02-05T02:21:18;6.47;;;5.13;;
8466;SDS011;4270;48.148;11.648;2023-02-05T02:29:13;6.90;;;5.63;;
8466;SDS011;4270;48.148;11.648;2023-02-05T02:31:45;8.13;;;5.77;;
8466;SDS011;4270;48.148;11.648;2023-02-05T02:37:22;7.83;;;5.60;;
8466;SDS011;4270;48.148;11.648;2023-02-05T02:42:19;8.03;;;6.17;;
8466;SDS011;4270;48.148;11.648;2023-02-05T02:47:16;11.27;;;6.97;;
8466;SDS011;4270;48.148;11.648;2023-02-05T02:50:04;11.20;;;6.63;;
8466;SDS011;4270;48.148;11.648;2023-02-05T02:52:28;9.03;;;6.20;;
8466;SDS011;4270;48.148;11.648;2023-02-05T02:54:56;10.00;;;6.73;;
8466;SDS011;4270;48.148;11.648;2023-02-05T02:57:24;11.27;;;6.50;;
8466;SDS011;4270;48.148;11.648;2023-02-05T02:59:52;10.17;;;7.13;;
8466;SDS011;4270;48.148;11.648;2023-02-05T03:02:19;10.13;;;6.93;;
8466;SDS011;4270;48.148;11.648;2023-02-05T03:04:46;11.43;;;7.17;;
8466;SDS011;4270;48.148;11.648;2023-02-05T03:07:18;11.90;;;7.60;;
8466;SDS011;4270;48.148;11.648;2023-02-05T03:09:55;11.60;;;7.20;;
8466;SDS011;4270;48.148;11.648;2023-02-05T03:12:23;12.00;;;7.00;;
8466;SDS011;4270;48.148;11.648;2023-02-05T03:14:49;9.40;;;6.50;;
8466;SDS011;4270;48.148;11.648;2023-02-05T03:17:14;12.30;;;8.60;;
8466;SDS011;4270;48.148;11.648;2023-02-05T03:19:44;11.43;;;6.60;;
8466;SDS011;4270;48.148;11.648;2023-02-05T03:22:09;11.00;;;7.10;;
8466;SDS011;4270;48.148;11.648;2023-02-05T03:24:35;10.20;;;6.77;;
8466;SDS011;4270;48.148;11.648;2023-02-05T03:27:00;11.20;;;6.83;;
8466;SDS011;4270;48.148;11.648;2023-02-05T03:29:26;12.13;;;7.33;;
8466;SDS011;4270;48.148;11.648;2023-02-05T03:37:05;7.07;;;5.83;;
8466;SDS011;4270;48.148;11.648;2023-02-05T03:47:34;10.00;;;6.30;;
8466;SDS011;4270;48.148;11.648;2023-02-05T03:50:07;10.47;;;6.80;;
8466;SDS011;4270;48.148;11.648;2023-02-05T03:52:36;11.80;;;6.27;;
8466;SDS011;4270;48.148;11.648;2023-02-05T03:55:17;9.33;;;5.70;;
8466;SDS011;4270;48.148;11.648;2023-02-05T03:57:50;8.97;;;6.37;;
8466;SDS011;4270;48.148;11.648;2023-02-05T04:00:17;7.93;;;5.70;;
8466;SDS011;4270;48.148;11.648;2023-02-05T04:02:44;9.43;;;6.60;;
8466;SDS011;4270;48.148;11.648;2023-02-05T04:05:09;13.97;;;6.10;;
8466;SDS011;4270;48.148;11.648;2023-02-05T04:07:34;10.97;;;7.20;;
8466;SDS011;4270;48.148;11.648;2023-02-05T04:09:59;13.70;;;6.60;;
8466;SDS011;4270;48.148;11.648;2023-02-05T04:12:25;8.97;;;6.40;;
8466;SDS011;4270;48.148;11.648;2023-02-05T04:14:50;10.57;;;6.70;;
8466;SDS011;4270;48.148;11.648;2023-02-05T04:17:15;9.80;;;6.00;;
8466;SDS011;4270;48.148;11.648;2023-02-05T04:19:40;10.83;;;6.60;;
8466;SDS011;4270;48.148;11.648;2023-02-05T04:22:06;9.43;;;5.80;;
8466;SDS011;4270;48.148;11.648;2023-02-05T04:24:31;10.30;;;6.47;;
8466;SDS011;4270;48.148;11.648;2023-02-05T04:26:56;13.23;;;7.20;;
8466;SDS011;4270;48.148;11.648;2023-02-05T04:29:21;11.47;;;6.70;;
8466;SDS011;4270;48.148;11.648;2023-02-05T04:31:46;10.67;;;6.97;;
8466;SDS011;4270;48.148;11.648;2023-02-05T04:34:11;11.00;;;7.33;;
8466;SDS011;4270;48.148;11.648;2023-02-05T04:36:38;13.10;;;7.47;;
8466;SDS011;4270;48.148;11.648;2023-02-05T04:39:03;8.90;;;6.03;;
8466;SDS011;4270;48.148;11.648;2023-02-05T04:41:28;9.87;;;6.20;;
8466;SDS011;4270;48.148;11.648;2023-02-05T04:43:53;15.00;;;7.23;;
8466;SDS011;4270;48.148;11.648;2023-02-05T04:46:18;10.67;;;7.33;;
8466;SDS011;4270;48.148;11.648;2023-02-05T04:48:44;14.50;;;9.10;;
8466;SDS011;4270;48.148;11.648;2023-02-05T04:51:09;14.10;;;8.30;;
8466;SDS011;4270;48.148;11.648;2023-02-05T04:53:35;15.20;;;8.90;;
8466;SDS011;4270;48.148;11.648;2023-02-05T04:56:07;11.30;;;7.20;;
8466;SDS011;4270;48.148;11.648;2023-02-05T04:58:32;12.13;;;7.10;;
8466;SDS011;4270;48.148;11.648;2023-02-05T05:00:57;14.00;;;7.33;;
8466;SDS011;4270;48.148;11.648;2023-02-05T05:03:22;11.57;;;7.90;;
8466;SDS011;4270;48.148;11.648;2023-02-05T05:05:47;16.20;;;7.30;;
8466;SDS011;4270;48.148;11.648;2023-02-05T05:08:13;19.63;;;8.60;;
8466;SDS011;4270;48.148;11.648;2023-02-05T05:10:38;13.27;;;6.90;;
8466;SDS011;4270;48.148;11.648;2023-02-05T05:13:03;12.57;;;6.20;;
8466;SDS011;4270;48.148;11.648;2023-02-05T05:15:28;10.63;;;6.67;;
8466;SDS011;4270;48.148;11.648;2023-02-05T05:17:54;13.23;;;8.17;;
8466;SDS011;4270;48.148;11.648;2023-02-05T05:20:19;12.13;;;6.43;;
8466;SDS011;4270;48.148;11.648;2023-02-05T05:22:44;10.63;;;6.07;;
8466;SDS011;4270;48.148;11.648;2023-02-05T05:25:09;10.17;;;6.47;;
8466;SDS011;4270;48.148;11.648;2023-02-05T05:27:34;10.83;;;6.03;;
8466;SDS011;4270;48.148;11.648;2023-02-05T05:29:59;12.23;;;6.65;;
8466;SDS011;4270;48.148;11.648;2023-02-05T05:32:25;10.43;;;5.80;;
8466;SDS011;4270;48.148;11.648;2023-02-05T05:34:50;9.30;;;6.67;;
8466;SDS011;4270;48.148;11.648;2023-02-05T05:37:15;10.13;;;5.60;;
8466;SDS011;4270;48.148;11.648;2023-02-05T05:39:40;10.73;;;6.13;;
8466;SDS011;4270;48.148;11.648;2023-02-05T05:42:24;7.70;;;5.63;;
8466;SDS011;4270;48.148;11.648;2023-02-05T05:45:08;10.90;;;6.27;;
8466;SDS011;4270;48.148;11.648;2023-02-05T05:47:33;9.10;;;5.60;;
8466;SDS011;4270;48.148;11.648;2023-02-05T05:49:58;6.70;;;4.80;;
8466;SDS011;4270;48.148;11.648;2023-02-05T05:52:23;8.40;;;5.23;;
8466;SDS011;4270;48.148;11.648;2023-02-05T05:54:48;8.97;;;5.17;;
8466;SDS011;4270;48.148;11.648;2023-02-05T05:57:13;7.13;;;4.88;;
8466;SDS011;4270;48.148;11.648;2023-02-05T05:59:39;6.57;;;5.00;;
8466;SDS011;4270;48.148;11.648;2023-02-05T06:02:04;8.33;;;4.60;;
8466;SDS011;4270;48.148;11.648;2023-02-05T06:04:29;9.90;;;5.10;;
8466;SDS011;4270;48.148;11.648;2023-02-05T06:06:54;7.63;;;4.90;;
8466;SDS011;4270;48.148;11.648;2023-02-05T06:09:19;7.30;;;4.80;;
8466;SDS011;4270;48.148;11.648;2023-02-05T06:11:46;7.40;;;4.47;;
8466;SDS011;4270;48.148;11.648;2023-02-05T06:14:11;10.40;;;6.13;;
8466;SDS011;4270;48.148;11.648;2023-02-05T06:16:36;5.40;;;4.60;;
8466;SDS011;4270;48.148;11.648;2023-02-05T06:19:01;8.20;;;5.63;;
8466;SDS011;4270;48.148;11.648;2023-02-05T06:21:26;7.30;;;4.50;;
8466;SDS011;4270;48.148;11.648;2023-02-05T06:23:52;7.13;;;4.90;;
8466;SDS011;4270;48.148;11.648;2023-02-05T06:26:17;7.93;;;5.07;;
8466;SDS011;4270;48.148;11.648;2023-02-05T06:28:42;8.33;;;4.90;;
8466;SDS011;4270;48.148;11.648;2023-02-05T06:31:07;6.93;;;5.00;;
8466;SDS011;4270;48.148;11.648;2023-02-05T06:33:32;9.40;;;5.17;;
8466;SDS011;4270;48.148;11.648;2023-02-05T06:35:58;6.80;;;4.67;;
8466;SDS011;4270;48.148;11.648;2023-02-05T06:38:23;6.70;;;4.60;;
8466;SDS011;4270;48.148;11.648;2023-02-05T06:40:48;6.90;;;5.10;;
8466;SDS011;4270;48.148;11.648;2023-02-05T06:43:13;5.93;;;5.27;;
8466;SDS011;4270;48.148;11.648;2023-02-05T06:45:38;8.77;;;5.70;;
8466;SDS011;4270;48.148;11.648;2023-02-05T06:48:04;7.80;;;5.47;;
8466;SDS011;4270;48.148;11.648;2023-02-05T06:50:29;8.47;;;4.63;;
8466;SDS011;4270;48.148;11.648;2023-02-05T06:52:54;6.60;;;4.60;;
8466;SDS011;4270;48.148;11.648;2023-02-05T06:55:19;7.40;;;4.87;;
8466;SDS011;4270;48.148;11.648;2023-02-05T06:57:44;9.83;;;5.20;;
8466;SDS011;4270;48.148;11.648;2023-02-05T07:00:10;8.10;;;5.63;;
8466;SDS011;4270;48.148;11.648;2023-02-05T07:02:35;7.43;;;4.97;;
8466;SDS011;4270;48.148;11.648;2023-02-05T07:05:00;7.80;;;4.57;;
8466;SDS011;4270;48.148;11.648;2023-02-05T07:07:26;14.93;;;6.50;;
8466;SDS011;4270;48.148;11.648;2023-02-05T07:09:52;10.23;;;6.10;;
8466;SDS011;4270;48.148;11.648;2023-02-05T07:12:17;16.00;;;6.70;;
8466;SDS011;4270;48.148;11.648;2023-02-05T07:14:42;15.70;;;5.80;;
8466;SDS011;4270;48.148;11.648;2023-02-05T07:17:07;9.70;;;5.67;;
8466;SDS011;4270;48.148;11.648;2023-02-05T07:19:33;9.37;;;5.80;;
8466;SDS011;4270;48.148;11.648;2023-02-05T07:21:58;12.30;;;5.90;;
8466;SDS011;4270;48.148;11.648;2023-02-05T07:24:23;9.40;;;7.07;;
8466;SDS011;4270;48.148;11.648;2023-02-05T07:26:49;7.67;;;5.40;;
8466;SDS011;4270;48.148;11.648;2023-02-05T07:29:14;10.97;;;6.27;;
8466;SDS011;4270;48.148;11.648;2023-02-05T07:31:39;12.30;;;5.80;;
8466;SDS011;4270;48.148;11.648;2023-02-05T07:34:04;9.27;;;5.20;;
8466;SDS011;4270;48.148;11.648;2023-02-05T07:36:29;7.43;;;5.30;;
8466;SDS011;4270;48.148;11.648;2023-02-05T07:38:55;10.87;;;5.50;;
8466;SDS011;4270;48.148;11.648;2023-02-05T07:41:20;7.50;;;5.20;;
8466;SDS011;4270;48.148;11.648;2023-02-05T07:43:45;7.93;;;5.80;;
8466;SDS011;4270;48.148;11.648;2023-02-05T07:46:14;5.80;;;4.90;;
8466;SDS011;4270;48.148;11.648;2023-02-05T07:48:39;6.53;;;5.10;;
8466;SDS011;4270;48.148;11.648;2023-02-05T07:51:05;7.90;;;5.20;;
8466;SDS011;4270;48.148;11.648;2023-02-05T07:53:30;7.07;;;5.43;;
8466;SDS011;4270;48.148;11.648;2023-02-05T07:55:56;6.17;;;5.23;;
8466;SDS011;4270;48.148;11.648;2023-02-05T07:58:21;8.50;;;5.27;;
8466;SDS011;4270;48.148;11.648;2023-02-05T08:00:46;7.00;;;4.70;;
8466;SDS011;4270;48.148;11.648;2023-02-05T08:03:11;5.80;;;5.07;;
8466;SDS011;4270;48.148;11.648;2023-02-05T08:05:37;6.80;;;5.10;;
8466;SDS011;4270;48.148;11.648;2023-02-05T08:08:02;5.60;;;5.00;;
8466;SDS011;4270;48.148;11.648;2023-02-05T08:10:27;6.30;;;5.20;;
8466;SDS011;4270;48.148;11.648;2023-02-05T08:12:53;17.80;;;6.07;;
8466;SDS011;4270;48.148;11.648;2023-02-05T08:15:18;7.10;;;5.30;;
8466;SDS011;4270;48.148;11.648;2023-02-05T08:17:43;6.20;;;5.00;;
8466;SDS011;4270;48.148;11.648;2023-02-05T08:20:08;6.97;;;5.50;;
8466;SDS011;4270;48.148;11.648;2023-02-05T08:22:34;6.80;;;5.23;;
8466;SDS011;4270;48.148;11.648;2023-02-05T08:25:00;6.60;;;4.97;;
8466;SDS011;4270;48.148;11.648;2023-02-05T08:27:26;5.30;;;4.80;;
8466;SDS011;4270;48.148;11.648;2023-02-05T08:29:51;7.03;;;5.40;;
8466;SDS011;4270;48.148;11.648;2023-02-05T08:32:16;5.67;;;5.00;;
8466;SDS011;4270;48.148;11.648;2023-02-05T08:34:41;5.43;;;4.90;;
8466;SDS011;4270;48.148;11.648;2023-02-05T08:37:06;7.00;;;4.97;;
8466;SDS011;4270;48.148;11.648;2023-02-05T08:39:32;5.97;;;5.40;;
8466;SDS011;4270;48.148;11.648;2023-02-05T08:41:57;4.63;;;4.23;;
8466;SDS011;4270;48.148;11.648;2023-02-05T08:44:22;4.83;;;4.37;;
8466;SDS011;4270;48.148;11.648;2023-02-05T08:46:47;5.77;;;5.00;;
8466;SDS011;4270;48.148;11.648;2023-02-05T08:49:13;7.50;;;5.20;;
8466;SDS011;4270;48.148;11.648;2023-02-05T08:51:38;5.80;;;5.30;;
8466;SDS011;4270;48.148;11.648;2023-02-05T08:54:03;5.20;;;4.67;;
8466;SDS011;4270;48.148;11.648;2023-02-05T08:56:30;5.40;;;4.90;;
8466;SDS011;4270;48.148;11.648;2023-02-05T08:58:55;4.53;;;4.13;;
8466;SDS011;4270;48.148;11.648;2023-02-05T09:01:20;5.30;;;4.67;;
8466;SDS011;4270;48.148;11.648;2023-02-05T09:03:46;5.80;;;4.93;;
8466;SDS011;4270;48.148;11.648;2023-02-05T09:06:12;4.50;;;4.10;;
8466;SDS011;4270;48.148;11.648;2023-02-05T09:08:38;4.90;;;4.50;;
8466;SDS011;4270;48.148;11.648;2023-02-05T09:11:03;4.70;;;4.30;;
8466;SDS011;4270;48.148;11.648;2023-02-05T09:13:29;5.07;;;4.57;;
8466;SDS011;4270;48.148;11.648;2023-02-05T09:15:54;5.87;;;4.20;;
8466;SDS011;4270;48.148;11.648;2023-02-05T09:18:19;4.20;;;3.80;;
8466;SDS011;4270;48.148;11.648;2023-02-05T09:20:45;5.70;;;4.03;;
8466;SDS011;4270;48.148;11.648;2023-02-05T09:23:12;5.30;;;4.53;;
8466;SDS011;4270;48.148;11.648;2023-02-05T09:25:37;6.37;;;4.10;;
8466;SDS011;4270;48.148;11.648;2023-02-05T09:28:03;5.73;;;4.40;;
8466;SDS011;4270;48.148;11.648;2023-02-05T09:30:29;4.53;;;4.03;;
8466;SDS011;4270;48.148;11.648;2023-02-05T09:32:54;4.07;;;3.60;;
8466;SDS011;4270;48.148;11.648;2023-02-05T09:35:19;4.57;;;4.17;;
8466;SDS011;4270;48.148;11.648;2023-02-05T09:37:44;7.30;;;3.80;;
8466;SDS011;4270;48.148;11.648;2023-02-05T09:40:20;5.43;;;4.03;;
8466;SDS011;4270;48.148;11.648;2023-02-05T09:47:51;4.10;;;3.77;;
8466;SDS011;4270;48.148;11.648;2023-02-05T09:50:21;4.40;;;4.00;;
8466;SDS011;4270;48.148;11.648;2023-02-05T09:52:53;5.23;;;4.10;;
8466;SDS011;4270;48.148;11.648;2023-02-05T09:55:25;5.67;;;3.73;;
8466;SDS011;4270;48.148;11.648;2023-02-05T09:57:55;6.80;;;4.20;;
8466;SDS011;4270;48.148;11.648;2023-02-05T10:00:26;5.50;;;4.20;;
8466;SDS011;4270;48.148;11.648;2023-02-05T10:05:38;4.60;;;4.10;;
8466;SDS011;4270;48.148;11.648;2023-02-05T10:08:15;4.63;;;4.03;;
8466;SDS011;4270;48.148;11.648;2023-02-05T10:10:43;3.93;;;3.10;;
8466;SDS011;4270;48.148;11.648;2023-02-05T10:15:48;7.73;;;5.80;;
8466;SDS011;4270;48.148;11.648;2023-02-05T10:20:45;6.07;;;4.13;;
8466;SDS011;4270;48.148;11.648;2023-02-05T10:23:16;5.30;;;3.70;;
8466;SDS011;4270;48.148;11.648;2023-02-05T10:25:57;6.70;;;4.33;;
8466;SDS011;4270;48.148;11.648;2023-02-05T10:31:01;5.20;;;3.80;;
8466;SDS011;4270;48.148;11.648;2023-02-05T10:35:58;7.53;;;3.00;;
8466;SDS011;4270;48.148;11.648;2023-02-05T10:38:25;3.90;;;3.27;;
8466;SDS011;4270;48.148;11.648;2023-02-05T10:40:54;4.47;;;3.10;;
8466;SDS011;4270;48.148;11.648;2023-02-05T10:43:32;6.80;;;3.93;;
8466;SDS011;4270;48.148;11.648;2023-02-05T10:46:00;5.00;;;3.63;;
8466;SDS011;4270;48.148;11.648;2023-02-05T10:53:23;5.10;;;3.30;;
8466;SDS011;4270;48.148;11.648;2023-02-05T10:55:49;4.67;;;3.67;;
8466;SDS011;4270;48.148;11.648;2023-02-05T10:58:23;5.20;;;3.77;;
8466;SDS011;4270;48.148;11.648;2023-02-05T11:00:49;4.40;;;3.10;;
8466;SDS011;4270;48.148;11.648;2023-02-05T11:03:16;4.80;;;3.30;;
8466;SDS011;4270;48.148;11.648;2023-02-05T11:05:41;6.80;;;3.43;;
8466;SDS011;4270;48.148;11.648;2023-02-05T11:10:51;4.60;;;3.50;;
8466;SDS011;4270;48.148;11.648;2023-02-05T11:13:18;3.57;;;3.20;;
8466;SDS011;4270;48.148;11.648;2023-02-05T11:16:02;6.17;;;3.07;;
8466;SDS011;4270;48.148;11.648;2023-02-05T11:18:30;7.17;;;3.00;;
8466;SDS011;4270;48.148;11.648;2023-02-05T11:20:57;5.80;;;2.80;;
8466;SDS011;4270;48.148;11.648;2023-02-05T11:23:24;3.67;;;2.53;;
8466;SDS011;4270;48.148;11.648;2023-02-05T11:25:54;4.63;;;2.60;;
8466;SDS011;4270;48.148;11.648;2023-02-05T11:28:20;4.10;;;2.73;;
8466;SDS011;4270;48.148;11.648;2023-02-05T11:30:48;3.67;;;2.77;;
8466;SDS011;4270;48.148;11.648;2023-02-05T11:40:54;4.60;;;3.23;;
8466;SDS011;4270;48.148;11.648;2023-02-05T11:43:22;5.40;;;2.83;;
8466;SDS011;4270;48.148;11.648;2023-02-05T11:45:49;6.13;;;3.50;;
8466;SDS011;4270;48.148;11.648;2023-02-05T11:50:56;5.83;;;3.57;;
8466;SDS011;4270;48.148;11.648;2023-02-05T11:53:21;5.77;;;3.30;;
8466;SDS011;4270;48.148;11.648;2023-02-05T11:55:51;5.60;;;3.30;;
8466;SDS011;4270;48.148;11.648;2023-02-05T11:58:19;6.07;;;3.30;;
8466;SDS011;4270;48.148;11.648;2023-02-05T12:00:51;3.93;;;3.03;;
8466;SDS011;4270;48.148;11.648;2023-02-05T12:03:17;5.83;;;3.30;;
8466;SDS011;4270;48.148;11.648;2023-02-05T12:05:47;5.13;;;3.40;;
8466;SDS011;4270;48.148;11.648;2023-02-05T12:18:36;5.70;;;2.40;;
8466;SDS011;4270;48.148;11.648;2023-02-05T12:24:02;11.07;;;2.30;;
8466;SDS011;4270;48.148;11.648;2023-02-05T12:26:34;7.87;;;2.27;;
8466;SDS011;4270;48.148;11.648;2023-02-05T12:31:57;3.80;;;1.73;;
8466;SDS011;4270;48.148;11.648;2023-02-05T12:34:26;4.47;;;2.50;;
8466;SDS011;4270;48.148;11.648;2023-02-05T12:52:18;4.87;;;2.57;;
8466;SDS011;4270;48.148;11.648;2023-02-05T12:57:18;9.50;;;2.57;;
8466;SDS011;4270;48.148;11.648;2023-02-05T13:00:03;4.80;;;3.03;;
8466;SDS011;4270;48.148;11.648;2023-02-05T13:02:37;5.67;;;2.67;;
8466;SDS011;4270;48.148;11.648;2023-02-05T13:05:15;4.93;;;2.60;;
8466;SDS011;4270;48.148;11.648;2023-02-05T13:07:44;4.10;;;1.80;;
8466;SDS011;4270;48.148;11.648;2023-02-05T13:10:18;4.53;;;2.30;;
8466;SDS011;4270;48.148;11.648;2023-02-05T13:12:46;7.03;;;3.90;;
8466;SDS011;4270;48.148;11.648;2023-02-05T13:15:47;5.47;;;2.80;;
8466;SDS011;4270;48.148;11.648;2023-02-05T13:20:37;5.37;;;2.60;;
8466;SDS011;4270;48.148;11.648;2023-02-05T13:23:22;4.90;;;2.60;;
8466;SDS011;4270;48.148;11.648;2023-02-05T13:26:06;6.73;;;2.50;;
8466;SDS011;4270;48.148;11.648;2023-02-05T13:28:44;6.63;;;2.60;;
8466;SDS011;4270;48.148;11.648;2023-02-05T13:31:19;7.03;;;2.80;;
8466;SDS011;4270;48.148;11.648;2023-02-05T13:33:46;9.07;;;3.20;;
8466;SDS011;4270;48.148;11.648;2023-02-05T13:38:43;6.90;;;2.60;;
8466;SDS011;4270;48.148;11.648;2023-02-05T13:43:43;7.07;;;2.85;;
8466;SDS011;4270;48.148;11.648;2023-02-05T13:51:32;8.63;;;3.73;;
8466;SDS011;4270;48.148;11.648;2023-02-05T13:54:18;7.30;;;3.57;;
8466;SDS011;4270;48.148;11.648;2023-02-05T13:56:50;11.03;;;3.40;;
8466;SDS011;4270;48.148;11.648;2023-02-05T14:01:52;7.63;;;3.30;;
8466;SDS011;4270;48.148;11.648;2023-02-05T14:07:20;8.90;;;3.30;;
8466;SDS011;4270;48.148;11.648;2023-02-05T14:09:53;7.03;;;3.20;;
8466;SDS011;4270;48.148;11.648;2023-02-05T14:12:21;6.27;;;4.10;;
8466;SDS011;4270;48.148;11.648;2023-02-05T14:19:59;15.00;;;3.80;;
8466;SDS011;4270;48.148;11.648;2023-02-05T14:22:41;11.90;;;4.50;;
8466;SDS011;4270;48.148;11.648;2023-02-05T14:27:51;11.80;;;4.27;;
8466;SDS011;4270;48.148;11.648;2023-02-05T14:32:57;10.87;;;4.20;;
8466;SDS011;4270;48.148;11.648;2023-02-05T14:35:32;7.23;;;3.80;;
8466;SDS011;4270;48.148;11.648;2023-02-05T14:38:02;7.77;;;3.90;;
8466;SDS011;4270;48.148;11.648;2023-02-05T14:40:38;8.87;;;3.97;;
8466;SDS011;4270;48.148;11.648;2023-02-05T14:43:21;6.23;;;4.10;;
8466;SDS011;4270;48.148;11.648;2023-02-05T14:45:47;7.10;;;4.00;;
8466;SDS011;4270;48.148;11.648;2023-02-05T14:48:26;8.80;;;5.07;;
8466;SDS011;4270;48.148;11.648;2023-02-05T14:51:13;16.03;;;5.13;;
8466;SDS011;4270;48.148;11.648;2023-02-05T14:53:40;11.43;;;5.20;;
8466;SDS011;4270;48.148;11.648;2023-02-05T14:56:20;9.93;;;5.10;;
8466;SDS011;4270;48.148;11.648;2023-02-05T14:58:46;10.83;;;4.80;;
8466;SDS011;4270;48.148;11.648;2023-02-05T15:03:58;13.47;;;6.13;;
8466;SDS011;4270;48.148;11.648;2023-02-05T15:06:26;11.87;;;6.00;;
8466;SDS011;4270;48.148;11.648;2023-02-05T15:09:03;9.17;;;6.00;;
8466;SDS011;4270;48.148;11.648;2023-02-05T15:11:32;8.93;;;5.27;;
8466;SDS011;4270;48.148;11.648;2023-02-05T15:19:33;12.40;;;6.33;;
8466;SDS011;4270;48.148;11.648;2023-02-05T15:22:01;7.83;;;5.87;;
8466;SDS011;4270;48.148;11.648;2023-02-05T15:24:28;12.90;;;6.20;;
8466;SDS011;4270;48.148;11.648;2023-02-05T15:29:21;13.77;;;6.40;;
8466;SDS011;4270;48.148;11.648;2023-02-05T15:31:48;9.03;;;5.87;;
8466;SDS011;4270;48.148;11.648;2023-02-05T15:34:22;9.03;;;5.50;;
8466;SDS011;4270;48.148;11.648;2023-02-05T15:37:35;10.87;;;6.27;;
8466;SDS011;4270;48.148;11.648;2023-02-05T15:39:56;8.90;;;5.90;;
8466;SDS011;4270;48.148;11.648;2023-02-05T15:42:43;13.00;;;6.50;;
8466;SDS011;4270;48.148;11.648;2023-02-05T15:48:09;9.87;;;5.40;;
8466;SDS011;4270;48.148;11.648;2023-02-05T15:55:53;9.07;;;6.43;;
8466;SDS011;4270;48.148;11.648;2023-02-05T16:04:00;11.63;;;7.23;;
8466;SDS011;4270;48.148;11.648;2023-02-05T16:06:26;13.73;;;7.60;;
8466;SDS011;4270;48.148;11.648;2023-02-05T16:08:52;13.83;;;7.13;;
8466;SDS011;4270;48.148;11.648;2023-02-05T16:11:27;16.27;;;10.20;;
8466;SDS011;4270;48.148;11.648;2023-02-05T16:14:12;18.40;;;11.30;;
8466;SDS011;4270;48.148;11.648;2023-02-05T16:16:41;21.70;;;11.30;;
8466;SDS011;4270;48.148;11.648;2023-02-05T16:19:10;21.80;;;11.53;;
8466;SDS011;4270;48.148;11.648;2023-02-05T16:21:40;18.77;;;12.23;;
8466;SDS011;4270;48.148;11.648;2023-02-05T16:24:13;23.60;;;12.37;;
8466;SDS011;4270;48.148;11.648;2023-02-05T16:26:42;15.43;;;10.10;;
8466;SDS011;4270;48.148;11.648;2023-02-05T16:29:19;14.73;;;9.17;;
8466;SDS011;4270;48.148;11.648;2023-02-05T16:31:54;13.70;;;9.43;;
8466;SDS011;4270;48.148;11.648;2023-02-05T16:34:21;17.77;;;10.50;;
8466;SDS011;4270;48.148;11.648;2023-02-05T16:36:49;14.80;;;10.13;;
8466;SDS011;4270;48.148;11.648;2023-02-05T16:39:18;16.00;;;10.00;;
8466;SDS011;4270;48.148;11.648;2023-02-05T16:41:44;17.17;;;10.70;;
8466;SDS011;4270;48.148;11.648;2023-02-05T16:44:24;13.43;;;10.30;;
8466;SDS011;4270;48.148;11.648;2023-02-05T16:47:02;14.20;;;10.40;;
8466;SDS011;4270;48.148;11.648;2023-02-05T16:49:28;15.10;;;9.33;;
8466;SDS011;4270;48.148;11.648;2023-02-05T16:51:54;18.03;;;8.50;;
8466;SDS011;4270;48.148;11.648;2023-02-05T16:59:17;17.03;;;8.63;;
8466;SDS011;4270;48.148;11.648;2023-02-05T17:01:43;12.67;;;10.07;;
8466;SDS011;4270;48.148;11.648;2023-02-05T17:04:18;13.53;;;9.30;;
8466;SDS011;4270;48.148;11.648;2023-02-05T17:06:50;20.10;;;9.40;;
8466;SDS011;4270;48.148;11.648;2023-02-05T17:09:25;21.77;;;10.47;;
8466;SDS011;4270;48.148;11.648;2023-02-05T17:11:53;20.50;;;9.40;;
8466;SDS011;4270;48.148;11.648;2023-02-05T17:14:28;13.97;;;8.03;;
8466;SDS011;4270;48.148;11.648;2023-02-05T17:16:56;14.20;;;8.07;;
8466;SDS011;4270;48.148;11.648;2023-02-05T17:19:27;17.60;;;9.87;;
8466;SDS011;4270;48.148;11.648;2023-02-05T17:24:36;18.57;;;9.13;;
8466;SDS011;4270;48.148;11.648;2023-02-05T17:27:01;15.20;;;9.43;;
8466;SDS011;4270;48.148;11.648;2023-02-05T17:29:26;17.10;;;9.40;;
8466;SDS011;4270;48.148;11.648;2023-02-05T17:31:52;14.53;;;8.90;;
8466;SDS011;4270;48.148;11.648;2023-02-05T17:34:17;18.57;;;9.50;;
8466;SDS011;4270;48.148;11.648;2023-02-05T17:36:42;15.87;;;8.23;;
8466;SDS011;4270;48.148;11.648;2023-02-05T17:39:07;17.37;;;8.80;;